Time;durP1;ratioP1;P1;durP2;ratioP2;P2;SDS_P1;SDS_P2;PMS_P1;PMS_P2;Temp;Humidity;BMP_temperature;BMP_pressure;BME280_temperature;BME280_humidity;BME280_pressure;Samples;Min_cycle;Max_cycle;Signal;HPM_P1;HPM_P2
2023/11/12 00:00:12;;;;;;;;;15.50;14.25;;;;;10.81;69.39;99895.13;5079268;28;69010;-69
2023/11/12 00:02:38;;;;;;;;;16.25;12.00;;;;;10.77;69.60;99883.94;5059094;28;45423;-69
2023/11/12 00:05:04;;;;;;;;;22.25;12.00;;;;;10.77;69.62;99881.31;5080249;28;44734;-69
2023/11/12 00:07:29;;;;;;;;;16.00;12.50;;;;;10.75;69.31;99869.22;5041077;28;45516;-69
2023/11/12 00:09:55;;;;;;;;;15.00;12.25;;;;;10.75;69.77;99871.84;5044718;28;45577;-70
2023/11/12 00:12:22;;;;;;;;;14.50;14.50;;;;;10.75;69.50;99872.69;5058297;28;47602;-69
2023/11/12 00:14:47;;;;;;;;;24.00;18.75;;;;;10.76;69.70;99876.13;5080714;28;45317;-69
2023/11/12 00:17:13;;;;;;;;;17.00;16.50;;;;;10.74;69.30;99877.97;5081181;28;45934;-69
2023/11/12 00:19:39;;;;;;;;;16.25;14.75;;;;;10.72;69.56;99879.81;5062969;28;45477;-69
2023/11/12 00:22:05;;;;;;;;;19.00;16.00;;;;;10.72;69.50;99879.81;5054452;28;46691;-69
2023/11/12 00:24:31;;;;;;;;;19.25;13.50;;;;;10.72;69.53;99877.19;5073002;28;45343;-69
2023/11/12 00:26:56;;;;;;;;;15.75;13.75;;;;;10.69;69.39;99872.91;5073960;28;45493;-69
2023/11/12 00:29:21;;;;;;;;;14.25;10.25;;;;;10.69;69.77;99864.22;5063581;28;73182;-69
2023/11/12 00:31:47;;;;;;;;;14.00;13.25;;;;;10.68;69.40;99850.31;5079463;28;46094;-70
2023/11/12 00:34:12;;;;;;;;;17.00;12.75;;;;;10.67;69.36;99847.75;5043636;28;71440;-69
2023/11/12 00:36:42;;;;;;;;;15.00;10.50;;;;;10.67;69.63;99838.13;5079518;28;45225;-70
2023/11/12 00:39:09;;;;;;;;;18.75;16.50;;;;;10.66;69.31;99825.97;5056738;28;45301;-70
2023/11/12 00:41:36;;;;;;;;;22.25;12.75;;;;;10.63;69.33;99819.06;5074561;28;47138;-70
2023/11/12 00:44:02;;;;;;;;;17.25;14.25;;;;;10.62;69.11;99817.41;5077706;28;45413;-70
2023/11/12 00:46:27;;;;;;;;;12.00;9.25;;;;;10.61;69.42;99818.28;5077194;28;45447;-70
2023/11/12 00:48:52;;;;;;;;;18.50;12.00;;;;;10.60;69.34;99821.81;5077817;28;72672;-69
2023/11/12 00:51:18;;;;;;;;;14.25;12.25;;;;;10.58;69.90;99810.56;5075284;28;62226;-69
2023/11/12 00:53:45;;;;;;;;;15.00;11.50;;;;;10.59;69.64;99812.28;5043476;28;45702;-70
2023/11/12 00:56:10;;;;;;;;;14.00;8.50;;;;;10.58;69.28;99804.50;5079964;28;45956;-69
2023/11/12 00:58:35;;;;;;;;;10.75;4.25;;;;;10.57;69.48;99805.41;5060745;28;67772;-69
2023/11/12 01:01:01;;;;;;;;;11.25;9.75;;;;;10.57;69.50;99811.50;5064313;28;74299;-70
2023/11/12 01:03:32;;;;;;;;;12.25;8.25;;;;;10.56;69.59;99801.09;5054654;28;45390;-69
2023/11/12 01:05:57;;;;;;;;;16.00;10.50;;;;;10.57;69.74;99793.19;5043320;28;45473;-69
2023/11/12 01:08:22;;;;;;;;;12.50;10.00;;;;;10.57;69.73;99789.69;5057622;28;45867;-69
2023/11/12 01:10:48;;;;;;;;;9.50;7.25;;;;;10.55;69.57;99779.31;5059130;28;74414;-69
2023/11/12 01:13:13;;;;;;;;;14.00;9.00;;;;;10.55;69.77;99784.56;5073320;28;45285;-69
2023/11/12 01:15:42;;;;;;;;;15.75;10.75;;;;;10.56;70.07;99790.63;5077666;28;58549;-69
2023/11/12 01:18:07;;;;;;;;;13.25;7.25;;;;;10.55;69.88;99792.41;5079799;28;45242;-69
2023/11/12 01:20:34;;;;;;;;;9.75;7.00;;;;;10.54;69.82;99789.84;5078764;28;73134;-71
2023/11/12 01:22:59;;;;;;;;;8.75;6.50;;;;;10.53;69.68;99794.22;5072635;28;45458;-69
2023/11/12 01:25:26;;;;;;;;;9.75;7.50;;;;;10.53;69.73;99785.53;5077891;28;66024;-69
2023/11/12 01:27:51;;;;;;;;;11.25;7.00;;;;;10.49;69.77;99778.72;5078310;28;46199;-70
2023/11/12 01:30:17;;;;;;;;;10.00;8.00;;;;;10.52;69.86;99789.91;5074560;28;73529;-70
2023/11/12 01:32:42;;;;;;;;;11.75;7.00;;;;;10.50;69.82;99786.50;5075490;28;45348;-70
2023/11/12 01:35:08;;;;;;;;;7.00;5.50;;;;;10.53;69.83;99780.28;5061193;28;68162;-69
2023/11/12 01:37:33;;;;;;;;;6.75;5.50;;;;;10.53;69.75;99778.50;5059109;28;46154;-69
2023/11/12 01:39:58;;;;;;;;;9.00;5.00;;;;;10.52;69.97;99778.59;5078791;28;61877;-69
2023/11/12 01:42:25;;;;;;;;;7.25;5.25;;;;;10.51;70.25;99790.81;5076910;28;45231;-69
2023/11/12 01:44:50;;;;;;;;;11.50;6.25;;;;;10.54;69.83;99806.38;5056733;28;45309;-69
2023/11/12 01:47:16;;;;;;;;;8.50;5.25;;;;;10.54;70.20;99798.53;5059763;28;45240;-69
2023/11/12 01:49:42;;;;;;;;;4.00;3.00;;;;;10.52;69.96;99807.38;5061173;28;45468;-69
2023/11/12 01:52:08;;;;;;;;;8.00;5.00;;;;;10.51;69.82;99811.75;5060300;28;72444;-70
2023/11/12 01:54:37;;;;;;;;;4.25;4.00;;;;;10.51;69.72;99808.28;5057440;28;45593;-69
2023/11/12 01:57:03;;;;;;;;;8.50;4.75;;;;;10.50;70.04;99806.56;5078448;28;45370;-69
2023/11/12 01:59:30;;;;;;;;;5.50;5.50;;;;;10.50;70.21;99810.06;5042386;28;54124;-70
2023/11/12 02:01:57;;;;;;;;;8.50;5.00;;;;;10.49;69.92;99810.97;5042233;28;46040;-70
2023/11/12 02:04:23;;;;;;;;;5.50;5.25;;;;;10.49;70.30;99802.28;5056779;28;45524;-69
2023/11/12 02:06:48;;;;;;;;;8.25;5.00;;;;;10.48;70.40;99798.78;5080173;28;46746;-69
2023/11/12 02:09:13;;;;;;;;;7.50;6.25;;;;;10.47;70.64;99798.88;5059592;28;70647;-69
2023/11/12 02:11:39;;;;;;;;;6.75;5.00;;;;;10.46;70.30;99800.63;5078726;28;45483;-69
2023/11/12 02:14:07;;;;;;;;;6.75;6.25;;;;;10.47;70.41;99811.94;5081197;28;45295;-69
2023/11/12 02:16:33;;;;;;;;;6.00;5.00;;;;;10.48;70.61;99797.94;5062908;28;64142;-69
2023/11/12 02:18:58;;;;;;;;;5.00;4.50;;;;;10.50;70.79;99803.94;5081388;28;65516;-70
2023/11/12 02:21:24;;;;;;;;;8.50;6.00;;;;;10.49;70.59;99791.81;5081892;28;54208;-69
2023/11/12 02:23:50;;;;;;;;;4.75;3.25;;;;;10.48;70.56;99801.41;5082123;28;45398;-69
2023/11/12 02:26:15;;;;;;;;;9.00;4.75;;;;;10.49;70.70;99797.88;5079026;28;45460;-68
2023/11/12 02:28:40;;;;;;;;;6.50;4.00;;;;;10.48;71.27;99800.56;5079302;28;75598;-69
2023/11/12 02:31:06;;;;;;;;;6.00;4.75;;;;;10.47;70.77;99789.25;5052428;28;73280;-69
2023/11/12 02:33:32;;;;;;;;;6.00;3.25;;;;;10.45;70.39;99801.56;5081643;28;45493;-70
2023/11/12 02:35:57;;;;;;;;;4.75;3.00;;;;;10.42;70.52;99783.34;5082250;28;45414;-69
2023/11/12 02:38:23;;;;;;;;;4.75;3.50;;;;;10.41;70.57;99789.50;5081863;28;45475;-68
2023/11/12 02:40:49;;;;;;;;;3.00;3.00;;;;;10.37;69.87;99787.94;5061861;28;45350;-69
2023/11/12 02:43:15;;;;;;;;;4.00;2.00;;;;;10.33;70.10;99787.19;5063443;28;45442;-69
2023/11/12 02:45:40;;;;;;;;;6.00;2.00;;;;;10.31;70.14;99783.81;5062870;28;45414;-69
2023/11/12 02:48:06;;;;;;;;;4.00;3.00;;;;;10.28;70.27;99778.66;5080138;28;73991;-69
2023/11/12 02:50:32;;;;;;;;;4.00;2.25;;;;;10.29;70.63;99785.59;5082800;28;45395;-69
2023/11/12 02:53:00;;;;;;;;;2.50;2.00;;;;;10.27;70.24;99785.66;5081695;28;45227;-69
2023/11/12 02:55:35;;;;;;;;;2.00;2.00;;;;;10.26;70.35;99786.56;5056933;28;45339;-69
2023/11/12 02:58:00;;;;;;;;;6.00;3.00;;;;;10.29;70.55;99787.34;5082320;28;45178;-69
2023/11/12 03:00:27;;;;;;;;;5.00;3.00;;;;;10.29;70.41;99789.97;5079921;28;45146;-69
2023/11/12 03:03:00;;;;;;;;;2.00;1.50;;;;;10.27;70.61;99790.06;5082391;28;45832;-69
2023/11/12 03:05:26;;;;;;;;;2.00;2.00;;;;;10.25;70.79;99787.50;5063937;28;45386;-68
2023/11/12 03:07:52;;;;;;;;;4.00;2.25;;;;;10.27;70.53;99776.97;5082640;28;47144;-69
2023/11/12 03:10:17;;;;;;;;;3.75;1.50;;;;;10.24;70.42;99772.72;5061816;28;73320;-69
2023/11/12 03:12:43;;;;;;;;;4.00;2.25;;;;;10.23;70.69;99768.41;5056168;28;45488;-69
2023/11/12 03:15:09;;;;;;;;;1.75;1.75;;;;;10.22;70.36;99771.09;5081060;28;45437;-69
2023/11/12 03:17:35;;;;;;;;;1.00;1.00;;;;;10.19;70.70;99769.44;5061805;28;45427;-69
2023/11/12 03:20:02;;;;;;;;;2.00;2.00;;;;;10.20;70.92;99768.53;5061364;28;45374;-69
2023/11/12 03:22:28;;;;;;;;;4.00;2.00;;;;;10.17;70.97;99766.03;5063478;28;45364;-69
2023/11/12 03:24:53;;;;;;;;;3.75;2.00;;;;;10.17;70.65;99776.50;5079359;28;72060;-69
2023/11/12 03:27:19;;;;;;;;;2.50;0.25;;;;;10.17;70.50;99773.88;5061547;28;68334;-69
2023/11/12 03:29:45;;;;;;;;;4.00;2.00;;;;;10.16;70.87;99777.38;5057227;28;45903;-69
2023/11/12 03:32:11;;;;;;;;;1.75;1.75;;;;;10.16;70.90;99773.94;5079327;28;45451;-69
2023/11/12 03:34:37;;;;;;;;;2.00;1.00;;;;;10.18;71.13;99766.88;5079980;28;45489;-69
2023/11/12 03:37:02;;;;;;;;;4.25;2.00;;;;;10.17;70.95;99773.88;5077210;28;45743;-69
2023/11/12 03:39:28;;;;;;;;;4.75;2.00;;;;;10.20;71.19;99776.38;5077166;28;45312;-69
2023/11/12 03:41:53;;;;;;;;;2.00;2.00;;;;;10.19;71.03;99779.88;5075142;28;69230;-69
2023/11/12 03:44:18;;;;;;;;;4.00;2.00;;;;;10.17;70.67;99779.09;5057233;28;72154;-69
2023/11/12 03:46:43;;;;;;;;;3.50;2.75;;;;;10.18;71.20;99772.97;5079419;28;75589;-69
2023/11/12 03:49:09;;;;;;;;;2.50;2.00;;;;;10.18;71.21;99782.56;5061630;28;71100;-69
2023/11/12 03:51:35;;;;;;;;;3.50;2.00;;;;;10.16;70.79;99774.78;5081385;28;45589;-69
2023/11/12 03:54:01;;;;;;;;;7.75;2.75;;;;;10.15;70.77;99780.09;5081349;28;45498;-69
2023/11/12 03:56:28;;;;;;;;;3.25;2.50;;;;;10.13;70.85;99779.28;5074110;28;45501;-69
2023/11/12 03:58:53;;;;;;;;;5.75;2.00;;;;;10.10;70.99;99769.81;5061936;28;45825;-69
2023/11/12 04:01:18;;;;;;;;;3.00;3.00;;;;;10.10;71.14;99776.81;5079644;28;52871;-69
2023/11/12 04:03:43;;;;;;;;;2.00;2.00;;;;;10.08;70.87;99769.88;5078415;28;73105;-69
2023/11/12 04:06:09;;;;;;;;;5.75;3.00;;;;;10.06;70.89;99773.47;5079685;28;74495;-69
2023/11/12 04:08:34;;;;;;;;;3.00;2.25;;;;;10.04;71.30;99762.22;5080238;28;45437;-69
2023/11/12 04:10:59;;;;;;;;;4.00;2.25;;;;;10.05;71.11;99766.53;5079371;28;68498;-69
2023/11/12 04:13:25;;;;;;;;;4.25;3.00;;;;;10.05;71.30;99764.75;5076392;28;68332;-69
2023/11/12 04:15:51;;;;;;;;;4.00;3.00;;;;;10.04;70.97;99773.53;5060026;28;66758;-69
2023/11/12 04:18:17;;;;;;;;;5.75;1.50;;;;;10.02;70.94;99766.66;5078946;28;45693;-69
2023/11/12 04:20:42;;;;;;;;;1.75;1.00;;;;;10.01;70.77;99759.72;5081498;28;45457;-69
2023/11/12 04:23:07;;;;;;;;;2.50;1.50;;;;;9.99;70.86;99753.72;5052905;28;73130;-69
2023/11/12 04:25:33;;;;;;;;;2.00;2.00;;;;;9.98;71.26;99752.84;5077326;28;46359;-69
2023/11/12 04:27:58;;;;;;;;;2.75;2.00;;;;;9.98;71.27;99754.63;5060029;28;45502;-69
2023/11/12 04:30:23;;;;;;;;;1.75;1.75;;;;;9.97;71.02;99756.41;5058578;28;45476;-69
2023/11/12 04:32:49;;;;;;;;;3.25;1.75;;;;;9.95;71.16;99760.84;5078820;28;72956;-69
2023/11/12 04:35:14;;;;;;;;;1.50;1.50;;;;;9.94;71.39;99756.50;5057317;28;60624;-69
2023/11/12 04:37:40;;;;;;;;;2.25;2.00;;;;;9.95;71.61;99754.72;5060376;28;69906;-69
2023/11/12 04:40:09;;;;;;;;;2.00;1.00;;;;;9.93;71.45;99749.56;5077299;28;45389;-70
2023/11/12 04:42:35;;;;;;;;;0.00;0.00;;;;;9.92;71.45;99752.28;5078053;28;45497;-69
2023/11/12 04:45:00;;;;;;;;;1.75;1.50;;;;;9.90;71.35;99749.72;5079963;28;46042;-69
2023/11/12 04:47:25;;;;;;;;;3.00;1.50;;;;;9.92;71.22;99754.88;5078469;28;45308;-69
2023/11/12 04:49:51;;;;;;;;;2.75;0.25;;;;;9.91;71.32;99748.78;5078501;28;65226;-69
2023/11/12 04:52:17;;;;;;;;;0.00;0.00;;;;;9.88;71.10;99747.16;5079457;28;45218;-69
2023/11/12 04:54:46;;;;;;;;;1.00;0.50;;;;;9.87;71.18;99749.81;5059868;28;46308;-69
2023/11/12 04:57:11;;;;;;;;;0.00;0.00;;;;;9.85;71.07;99736.81;5080192;28;45622;-68
2023/11/12 04:59:40;;;;;;;;;1.00;1.00;;;;;9.86;71.22;99746.38;5060411;28;63718;-69
2023/11/12 05:02:06;;;;;;;;;1.75;0.50;;;;;9.84;71.06;99732.53;5079355;28;45380;-69
2023/11/12 05:04:31;;;;;;;;;3.00;1.50;;;;;9.83;71.57;99736.03;5078125;28;50731;-68
2023/11/12 05:06:56;;;;;;;;;2.00;0.00;;;;;9.85;71.21;99738.59;5044563;28;72070;-68
2023/11/12 05:09:22;;;;;;;;;2.75;0.25;;;;;9.84;71.71;99729.91;5079104;28;46031;-68
2023/11/12 05:11:47;;;;;;;;;3.00;1.25;;;;;9.86;72.53;99724.59;5077964;28;51430;-69
2023/11/12 05:14:14;;;;;;;;;2.75;1.00;;;;;9.93;72.17;99717.38;5058263;28;74254;-69
2023/11/12 05:16:41;;;;;;;;;4.00;1.75;;;;;9.96;71.86;99712.88;5078681;28;45737;-69
2023/11/12 05:19:07;;;;;;;;;1.75;1.00;;;;;10.00;71.76;99703.97;5078412;28;45374;-69
2023/11/12 05:21:32;;;;;;;;;1.25;0.75;;;;;10.04;71.60;99696.88;5058223;28;45902;-69
2023/11/12 05:23:58;;;;;;;;;1.00;1.00;;;;;10.06;71.59;99695.06;5061058;28;46076;-69
2023/11/12 05:26:23;;;;;;;;;1.00;1.00;;;;;10.07;71.49;99683.66;5061690;28;45688;-69
2023/11/12 05:28:49;;;;;;;;;3.00;0.50;;;;;10.10;71.34;99680.94;5078630;28;54418;-68
2023/11/12 05:31:14;;;;;;;;;1.00;1.00;;;;;10.10;71.37;99686.16;5076522;28;45166;-68
2023/11/12 05:33:39;;;;;;;;;1.75;1.00;;;;;10.12;71.25;99696.56;5073877;28;74593;-69
2023/11/12 05:36:05;;;;;;;;;0.00;0.00;;;;;10.12;71.21;99684.31;5074216;28;45550;-67
2023/11/12 05:38:31;;;;;;;;;1.50;0.00;;;;;10.14;70.97;99692.94;5074531;28;45197;-68
2023/11/12 05:40:56;;;;;;;;;0.25;0.00;;;;;10.15;70.60;99689.44;5075721;28;45504;-69
2023/11/12 05:43:21;;;;;;;;;0.00;0.00;;;;;10.14;70.38;99692.09;5073299;28;75470;-69
2023/11/12 05:45:46;;;;;;;;;1.00;0.00;;;;;10.13;70.78;99685.16;5059843;28;52137;-69
2023/11/12 05:48:12;;;;;;;;;0.00;0.00;;;;;10.07;70.45;99681.06;5078124;28;68177;-68
2023/11/12 05:50:37;;;;;;;;;1.00;1.00;;;;;10.12;70.94;99686.94;5078088;28;45230;-69
2023/11/12 05:53:03;;;;;;;;;3.00;1.50;;;;;10.12;70.55;99694.78;5079091;28;46175;-69
2023/11/12 05:55:28;;;;;;;;;0.75;0.75;;;;;10.13;70.90;99691.25;5078924;28;45421;-69
2023/11/12 05:57:53;;;;;;;;;0.50;0.00;;;;;10.15;71.09;99696.44;5053501;28;45367;-68
2023/11/12 06:00:19;;;;;;;;;0.50;0.00;;;;;10.13;70.33;99693.00;5059005;28;72258;-69
2023/11/12 06:02:44;;;;;;;;;0.00;0.00;;;;;10.09;70.33;99681.81;5058812;28;47354;-69
2023/11/12 06:05:10;;;;;;;;;1.00;0.00;;;;;10.10;70.68;99694.00;5041830;28;73273;-69
2023/11/12 06:07:35;;;;;;;;;0.25;0.00;;;;;10.10;70.35;99685.31;5057968;28;52244;-69
2023/11/12 06:10:01;;;;;;;;;1.00;1.00;;;;;10.08;70.35;99677.53;5076969;28;72933;-69
2023/11/12 06:12:26;;;;;;;;;0.25;0.00;;;;;10.11;70.37;99682.66;5073139;28;75598;-70
2023/11/12 06:14:51;;;;;;;;;1.00;0.00;;;;;10.11;70.12;99679.16;5070261;28;73335;-68
2023/11/12 06:17:17;;;;;;;;;2.00;0.25;;;;;10.10;69.97;99683.53;5061218;28;45338;-69
2023/11/12 06:19:42;;;;;;;;;0.00;0.00;;;;;10.07;70.05;99679.31;5075490;28;73411;-68
2023/11/12 06:22:07;;;;;;;;;2.00;0.00;;;;;10.07;70.18;99688.88;5072775;28;66298;-68
2023/11/12 06:24:33;;;;;;;;;0.00;0.00;;;;;10.05;70.20;99681.09;5059489;28;61478;-68
2023/11/12 06:26:58;;;;;;;;;0.75;0.00;;;;;10.02;70.25;99696.94;5079364;28;45588;-68
2023/11/12 06:29:23;;;;;;;;;1.00;0.75;;;;;10.00;69.85;99695.28;5072624;28;45495;-69
2023/11/12 06:31:49;;;;;;;;;1.00;0.00;;;;;10.01;69.93;99692.63;5057139;28;47002;-67
2023/11/12 06:34:14;;;;;;;;;0.00;0.00;;;;;10.01;70.45;99694.38;5060384;28;45374;-67
2023/11/12 06:36:40;;;;;;;;;0.00;0.00;;;;;10.01;70.19;99695.22;5078415;28;68114;-68
2023/11/12 06:39:05;;;;;;;;;0.00;0.00;;;;;10.01;70.28;99692.63;5073879;28;45573;-69
2023/11/12 06:41:31;;;;;;;;;2.75;0.00;;;;;9.99;70.34;99697.06;5078270;28;46941;-68
2023/11/12 06:43:56;;;;;;;;;0.00;0.00;;;;;9.99;70.11;99696.22;5057889;28;45561;-68
2023/11/12 06:46:21;;;;;;;;;2.00;0.50;;;;;9.96;70.42;99699.78;5076543;28;67412;-68
2023/11/12 06:48:47;;;;;;;;;3.00;1.00;;;;;9.97;70.24;99703.25;5059798;28;45637;-68
2023/11/12 06:51:23;;;;;;;;;2.00;0.75;;;;;9.98;70.30;99702.34;5074782;28;47477;-68
2023/11/12 06:53:49;;;;;;;;;0.25;0.00;;;;;9.92;70.03;99693.00;5077095;28;45273;-68
2023/11/12 06:56:14;;;;;;;;;0.50;0.00;;;;;9.91;70.25;99690.44;5075779;28;45412;-67
2023/11/12 06:58:40;;;;;;;;;0.00;0.00;;;;;9.88;70.42;99688.81;5081788;28;71207;-68
2023/11/12 07:01:05;;;;;;;;;0.00;0.00;;;;;9.88;70.37;99694.06;5080437;28;45522;-67
2023/11/12 07:03:31;;;;;;;;;1.50;1.00;;;;;9.85;70.38;99694.16;5080829;28;73020;-68
2023/11/12 07:05:56;;;;;;;;;1.25;0.50;;;;;9.87;70.86;99703.63;5078616;28;68370;-67
2023/11/12 07:08:21;;;;;;;;;3.00;0.00;;;;;9.84;70.50;99695.94;5080802;28;73170;-71
2023/11/12 07:10:47;;;;;;;;;1.00;0.00;;;;;9.80;70.98;99694.34;5054822;28;73074;-68
2023/11/12 07:13:12;;;;;;;;;4.00;1.00;;;;;9.80;70.86;99699.56;5071166;28;45491;-68
2023/11/12 07:15:37;;;;;;;;;1.00;1.00;;;;;9.78;71.15;99698.78;5070274;28;45238;-69
2023/11/12 07:18:03;;;;;;;;;3.00;0.00;;;;;9.77;71.12;99699.69;5055393;28;53816;-68
2023/11/12 07:20:32;;;;;;;;;1.00;1.00;;;;;9.76;71.57;99697.16;5055356;28;72305;-68
2023/11/12 07:22:59;;;;;;;;;1.00;1.00;;;;;9.73;71.58;99708.56;5078649;28;45244;-68
2023/11/12 07:25:25;;;;;;;;;2.00;0.25;;;;;9.74;72.24;99707.66;5079524;28;46582;-68
2023/11/12 07:27:50;;;;;;;;;1.00;1.00;;;;;9.74;71.64;99710.28;5073589;28;46270;-68
2023/11/12 07:30:15;;;;;;;;;0.25;0.00;;;;;9.74;72.07;99709.41;5074146;28;63513;-68
2023/11/12 07:32:41;;;;;;;;;2.00;1.00;;;;;9.75;71.51;99717.19;5079165;28;70115;-68
2023/11/12 07:35:08;;;;;;;;;1.00;1.00;;;;;9.74;71.65;99717.25;5077089;28;67743;-69
2023/11/12 07:37:33;;;;;;;;;2.00;2.00;;;;;9.71;71.70;99717.41;5060105;28;45584;-68
2023/11/12 07:39:59;;;;;;;;;1.00;1.00;;;;;9.71;72.25;99710.41;5059283;28;46433;-68
2023/11/12 07:42:24;;;;;;;;;1.25;0.75;;;;;9.72;72.13;99719.94;5078861;28;51703;-70
2023/11/12 07:44:50;;;;;;;;;0.00;0.00;;;;;9.71;71.92;99720.84;5079963;28;63279;-67
2023/11/12 07:47:15;;;;;;;;;1.00;1.00;;;;;9.70;71.99;99729.59;5061218;28;45380;-68
2023/11/12 07:49:41;;;;;;;;;1.25;0.75;;;;;9.70;72.38;99726.97;5079172;28;46498;-66
2023/11/12 07:52:06;;;;;;;;;0.25;0.25;;;;;9.72;72.68;99737.38;5079841;28;73201;-68
2023/11/12 07:54:31;;;;;;;;;0.00;0.00;;;;;9.69;72.69;99735.75;5061843;28;45373;-68
2023/11/12 07:56:57;;;;;;;;;1.00;0.00;;;;;9.67;72.21;99745.41;5080151;28;73270;-68
2023/11/12 07:59:23;;;;;;;;;1.00;1.00;;;;;9.65;72.59;99740.22;5078480;28;46196;-71
2023/11/12 08:01:49;;;;;;;;;0.75;0.75;;;;;9.68;72.49;99744.47;5062540;28;45543;-70
2023/11/12 08:04:15;;;;;;;;;2.00;2.00;;;;;9.67;74.91;99745.41;5078718;28;45373;-71
2023/11/12 08:06:40;;;;;;;;;4.00;1.00;;;;;9.66;73.07;99746.28;5080475;28;45278;-69
2023/11/12 08:09:07;;;;;;;;;1.00;0.75;;;;;9.66;72.85;99743.69;5080098;28;75580;-68
2023/11/12 08:11:38;;;;;;;;;1.75;1.00;;;;;9.63;73.31;99749.03;5046218;28;46463;-68
2023/11/12 08:14:04;;;;;;;;;1.00;1.00;;;;;9.64;75.51;99745.50;5059092;28;45551;-69
2023/11/12 08:16:29;;;;;;;;;0.50;0.00;;;;;9.64;72.98;99741.13;5063194;28;71940;-69
2023/11/12 08:18:54;;;;;;;;;1.50;1.25;;;;;9.65;73.21;99747.19;5077475;28;75621;-69
2023/11/12 08:21:20;;;;;;;;;3.00;1.50;;;;;9.67;73.05;99748.84;5079189;28;73199;-74
2023/11/12 08:23:45;;;;;;;;;1.00;1.00;;;;;9.66;73.40;99744.53;5080030;28;68406;-68
2023/11/12 08:26:10;;;;;;;;;3.00;1.00;;;;;9.67;73.85;99745.41;5040455;28;74948;-73
2023/11/12 08:28:36;;;;;;;;;0.75;0.75;;;;;9.68;73.47;99752.31;5060366;28;75474;-78
2023/11/12 08:31:01;;;;;;;;;3.75;1.25;;;;;9.69;73.26;99754.03;5079308;28;64926;-78
2023/11/12 08:33:26;;;;;;;;;1.25;1.00;;;;;9.74;73.21;99756.44;5065141;28;70609;-80
2023/11/12 08:35:52;;;;;;;;;0.25;0.25;;;;;9.72;73.21;99756.53;5079285;28;45524;-77
2023/11/12 08:38:17;;;;;;;;;2.00;1.00;;;;;9.75;73.16;99761.59;5079083;28;45371;-72
2023/11/12 08:40:44;;;;;;;;;0.75;0.75;;;;;9.75;73.46;99760.75;5062245;28;45344;-72
2023/11/12 08:43:10;;;;;;;;;0.00;0.00;;;;;9.76;73.95;99758.09;5079153;28;45426;-72
2023/11/12 08:45:35;;;;;;;;;1.00;0.00;;;;;9.77;73.53;99761.56;5061371;28;45606;-72
2023/11/12 08:48:01;;;;;;;;;1.50;1.50;;;;;9.78;73.39;99764.09;5076060;28;47813;-72
2023/11/12 08:50:27;;;;;;;;;0.00;0.00;;;;;9.82;73.49;99749.16;5079029;28;45309;-74
2023/11/12 08:52:52;;;;;;;;;5.00;1.00;;;;;9.84;73.46;99752.56;5061554;28;46253;-70
2023/11/12 08:55:18;;;;;;;;;2.00;0.75;;;;;9.89;73.57;99761.06;5075136;28;72720;-70
2023/11/12 08:57:44;;;;;;;;;1.50;1.00;;;;;9.89;73.18;99769.75;5056968;28;48069;-77
2023/11/12 09:00:11;;;;;;;;;1.00;1.00;;;;;9.88;73.34;99764.59;5076817;28;45697;-73
2023/11/12 09:02:37;;;;;;;;;2.00;2.00;;;;;9.95;73.57;99784.34;5037105;28;45411;-71
2023/11/12 09:05:04;;;;;;;;;6.00;5.25;;;;;9.96;73.57;99777.34;5069608;28;45473;-74
2023/11/12 09:07:29;;;;;;;;;1.50;1.25;;;;;9.96;73.16;99778.19;5052025;28;45957;-71
2023/11/12 09:09:55;;;;;;;;;2.50;1.00;;;;;10.00;73.40;99786.78;5073611;28;45235;-70
2023/11/12 09:12:21;;;;;;;;;1.00;1.00;;;;;10.04;72.93;99798.81;5057140;28;45425;-71
2023/11/12 09:14:46;;;;;;;;;2.00;1.00;;;;;10.03;73.17;99792.72;5076999;28;45362;-73
2023/11/12 09:17:12;;;;;;;;;2.00;2.00;;;;;10.08;73.01;99795.16;5080257;28;45222;-73
2023/11/12 09:19:37;;;;;;;;;1.00;1.00;;;;;10.07;73.29;99793.44;5079002;28;45243;-72
2023/11/12 09:22:03;;;;;;;;;2.00;2.00;;;;;10.10;73.25;99803.78;5041523;28;66758;-68
2023/11/12 09:24:28;;;;;;;;;2.75;1.00;;;;;10.10;73.09;99803.78;5061354;28;48263;-68
2023/11/12 09:26:54;;;;;;;;;3.00;1.50;;;;;10.14;73.25;99804.53;5055188;28;45526;-69
2023/11/12 09:29:19;;;;;;;;;1.00;1.00;;;;;10.17;72.86;99818.31;5059552;28;58632;-70
2023/11/12 09:31:44;;;;;;;;;0.00;0.00;;;;;10.23;73.17;99819.84;5042788;28;45418;-68
2023/11/12 09:34:10;;;;;;;;;1.00;1.00;;;;;10.26;73.04;99830.19;5065230;28;72987;-68
2023/11/12 09:36:35;;;;;;;;;3.00;1.50;;;;;10.30;72.93;99836.97;5066930;28;62381;-68
2023/11/12 09:39:00;;;;;;;;;1.00;1.00;;;;;10.32;72.99;99829.94;5060632;28;74242;-68
2023/11/12 09:41:26;;;;;;;;;1.50;1.50;;;;;10.34;72.77;99811.59;5043974;28;45423;-68
2023/11/12 09:43:54;;;;;;;;;2.50;2.00;;;;;10.38;73.25;99814.03;5067200;28;45298;-68
2023/11/12 09:46:20;;;;;;;;;1.00;1.00;;;;;10.39;72.97;99813.13;5076926;28;46042;-68
2023/11/12 09:48:45;;;;;;;;;3.00;1.00;;;;;10.44;72.97;99826.00;5035675;28;45509;-68
2023/11/12 09:51:13;;;;;;;;;3.00;3.00;;;;;10.49;72.91;99824.03;5062842;28;45418;-68
2023/11/12 09:53:40;;;;;;;;;4.00;2.00;;;;;10.53;72.77;99832.59;5050297;28;48443;-68
2023/11/12 09:56:09;;;;;;;;;1.75;1.75;;;;;10.53;73.17;99833.44;5054842;28;46449;-68
2023/11/12 09:58:43;;;;;;;;;2.50;2.50;;;;;10.62;72.71;99819.13;5055183;28;45321;-68
2023/11/12 10:01:13;;;;;;;;;3.00;3.00;;;;;10.69;72.69;99828.44;5075659;28;45522;-68
2023/11/12 10:03:39;;;;;;;;;2.25;2.25;;;;;10.75;72.93;99827.34;5070355;28;45619;-69
2023/11/12 10:06:06;;;;;;;;;3.00;3.00;;;;;10.85;72.46;99823.41;5061381;28;47392;-69
2023/11/12 10:08:35;;;;;;;;;4.75;4.00;;;;;10.92;72.49;99824.84;5065886;28;45920;-70
2023/11/12 10:11:22;;;;;;;;;4.25;4.25;;;;;10.95;72.46;99852.66;5072345;28;45457;-68
2023/11/12 10:13:48;;;;;;;;;5.00;3.50;;;;;10.94;72.12;99851.81;5046811;28;45549;-66
2023/11/12 10:16:29;;;;;;;;;2.25;2.25;;;;;10.94;72.37;99828.25;5055008;28;47418;-68
2023/11/12 10:19:11;;;;;;;;;4.00;3.50;;;;;10.97;72.40;99841.19;5072101;28;45446;-68
2023/11/12 10:21:58;;;;;;;;;4.50;4.50;;;;;10.98;72.37;99834.22;5068141;28;45491;-68
2023/11/12 10:24:24;;;;;;;;;4.75;4.00;;;;;10.97;72.39;99828.09;5078774;28;45564;-69
2023/11/12 10:26:50;;;;;;;;;2.00;2.00;;;;;10.94;72.06;99825.66;5042415;28;47116;-68
2023/11/12 10:29:23;;;;;;;;;4.00;4.00;;;;;10.98;72.24;99819.34;5082855;28;45300;-70
2023/11/12 10:31:51;;;;;;;;;4.25;4.25;;;;;11.04;72.51;99827.84;5061319;28;45423;-67
2023/11/12 10:34:17;;;;;;;;;5.50;5.00;;;;;11.09;72.13;99826.72;5048802;28;45222;-68
2023/11/12 10:37:00;;;;;;;;;4.75;4.00;;;;;11.13;72.30;99817.81;5043864;28;47281;-69
2023/11/12 10:39:43;;;;;;;;;3.25;3.25;;;;;11.17;72.03;99805.44;5083132;28;45458;-69
2023/11/12 10:42:24;;;;;;;;;5.25;3.00;;;;;11.21;71.98;99805.25;5054739;28;45459;-69
2023/11/12 10:44:54;;;;;;;;;5.00;5.00;;;;;11.29;71.76;99825.00;5044604;28;45612;-69
2023/11/12 10:47:22;;;;;;;;;7.50;3.75;;;;;11.28;71.94;99818.06;5064632;28;47259;-69
2023/11/12 10:49:50;;;;;;;;;6.00;3.00;;;;;11.25;71.95;99821.66;5082633;28;45764;-69
2023/11/12 10:52:16;;;;;;;;;6.00;4.00;;;;;11.29;72.06;99820.59;5058453;28;45487;-69
2023/11/12 10:54:42;;;;;;;;;5.25;4.75;;;;;11.39;72.37;99831.53;5064332;28;45490;-69
2023/11/12 10:57:08;;;;;;;;;8.50;6.50;;;;;11.44;72.10;99842.66;5082481;28;45421;-69
2023/11/12 10:59:37;;;;;;;;;10.75;6.00;;;;;11.46;72.23;99843.44;5077901;28;45292;-69
2023/11/12 11:02:03;;;;;;;;;6.00;4.25;;;;;11.49;72.15;99842.44;5072233;28;45163;-69
2023/11/12 11:04:28;;;;;;;;;10.25;5.00;;;;;11.54;71.87;99838.72;5064150;28;45497;-70
2023/11/12 11:06:54;;;;;;;;;8.75;6.50;;;;;11.57;71.88;99829.84;5074253;28;73952;-69
2023/11/12 11:09:22;;;;;;;;;6.25;5.00;;;;;11.57;72.01;99838.56;5055498;28;45338;-69
2023/11/12 11:11:49;;;;;;;;;7.50;6.75;;;;;11.59;71.52;99849.81;5039673;28;45548;-69
2023/11/12 11:14:25;;;;;;;;;6.00;6.00;;;;;11.62;71.73;99843.59;5055587;28;45288;-69
2023/11/12 11:16:52;;;;;;;;;8.50;6.50;;;;;11.64;72.16;99854.84;5068728;28;46292;-69
2023/11/12 11:19:18;;;;;;;;;11.00;7.50;;;;;11.67;72.02;99857.34;5055525;28;45885;-69
2023/11/12 11:22:21;;;;;;;;;9.00;9.00;;;;;11.68;71.95;99860.81;5055392;28;45487;-70
2023/11/12 11:24:46;;;;;;;;;16.75;8.00;;;;;11.71;71.71;99863.28;5041155;28;45522;-69
2023/11/12 11:27:12;;;;;;;;;9.00;8.00;;;;;11.74;72.04;99863.16;5046060;28;61441;-69
2023/11/12 11:30:11;;;;;;;;;9.75;7.75;;;;;11.77;72.36;99856.00;5081921;28;45416;-69